sensor_id;sensor_type;location;lat;lon;timestamp;pressure;altitude;pressure_sealevel;temperature;humidity
76637;BME280;65532;52.124;5.480;2023-12-20T00:01:05;101557.50;;;5.27;100.00
76637;BME280;65532;52.124;5.480;2023-12-20T00:03:31;101558.53;;;5.26;100.00
76637;BME280;65532;52.124;5.480;2023-12-20T00:06:08;101559.22;;;5.20;100.00
76637;BME280;65532;52.124;5.480;2023-12-20T00:08:35;101553.19;;;5.18;100.00
76637;BME280;65532;52.124;5.480;2023-12-20T00:11:01;101552.34;;;5.17;100.00
76637;BME280;65532;52.124;5.480;2023-12-20T00:13:28;101545.50;;;5.15;100.00
76637;BME280;65532;52.124;5.480;2023-12-20T00:15:54;101544.19;;;5.10;100.00
76637;BME280;65532;52.124;5.480;2023-12-20T00:18:21;101545.91;;;5.03;100.00
76637;BME280;65532;52.124;5.480;2023-12-20T00:20:47;101540.41;;;4.97;100.00
76637;BME280;65532;52.124;5.480;2023-12-20T00:23:14;101546.16;;;4.94;100.00
76637;BME280;65532;52.124;5.480;2023-12-20T00:25:40;101542.31;;;4.88;100.00
76637;BME280;65532;52.124;5.480;2023-12-20T00:28:07;101542.00;;;4.83;100.00
76637;BME280;65532;52.124;5.480;2023-12-20T00:30:33;101529.97;;;4.79;100.00
76637;BME280;65532;52.124;5.480;2023-12-20T00:33:00;101538.69;;;4.73;100.00
76637;BME280;65532;52.124;5.480;2023-12-20T00:35:26;101546.25;;;4.69;100.00
76637;BME280;65532;52.124;5.480;2023-12-20T00:37:53;101542.44;;;4.64;100.00
76637;BME280;65532;52.124;5.480;2023-12-20T00:40:20;101547.50;;;4.59;100.00
76637;BME280;65532;52.124;5.480;2023-12-20T00:42:47;101547.84;;;4.56;100.00
76637;BME280;65532;52.124;5.480;2023-12-20T00:45:14;101544.50;;;4.54;100.00
76637;BME280;65532;52.124;5.480;2023-12-20T00:47:41;101542.16;;;4.50;100.00
76637;BME280;65532;52.124;5.480;2023-12-20T00:50:08;101546.03;;;4.48;100.00
76637;BME280;65532;52.124;5.480;2023-12-20T00:52:35;101547.88;;;4.47;100.00
76637;BME280;65532;52.124;5.480;2023-12-20T00:55:02;101540.19;;;4.44;100.00
76637;BME280;65532;52.124;5.480;2023-12-20T00:57:30;101535.16;;;4.41;100.00
76637;BME280;65532;52.124;5.480;2023-12-20T00:59:58;101545.88;;;4.41;100.00
76637;BME280;65532;52.124;5.480;2023-12-20T01:02:24;101550.25;;;4.42;100.00
76637;BME280;65532;52.124;5.480;2023-12-20T01:04:51;101546.22;;;4.38;100.00
76637;BME280;65532;52.124;5.480;2023-12-20T01:07:18;101533.00;;;4.37;100.00
76637;BME280;65532;52.124;5.480;2023-12-20T01:09:45;101534.19;;;4.34;100.00
76637;BME280;65532;52.124;5.480;2023-12-20T01:12:12;101525.50;;;4.32;100.00
76637;BME280;65532;52.124;5.480;2023-12-20T01:14:38;101522.16;;;4.30;100.00
76637;BME280;65532;52.124;5.480;2023-12-20T01:17:06;101530.00;;;4.32;100.00
76637;BME280;65532;52.124;5.480;2023-12-20T01:19:32;101536.38;;;4.31;100.00
76637;BME280;65532;52.124;5.480;2023-12-20T01:21:59;101537.22;;;4.31;100.00
76637;BME280;65532;52.124;5.480;2023-12-20T01:24:26;101533.72;;;4.31;100.00
76637;BME280;65532;52.124;5.480;2023-12-20T01:26:52;101535.72;;;4.29;100.00
76637;BME280;65532;52.124;5.480;2023-12-20T01:29:19;101549.31;;;4.27;100.00
76637;BME280;65532;52.124;5.480;2023-12-20T01:31:45;101549.13;;;4.29;100.00
76637;BME280;65532;52.124;5.480;2023-12-20T01:34:12;101557.00;;;4.30;100.00
76637;BME280;65532;52.124;5.480;2023-12-20T01:36:39;101551.28;;;4.33;100.00
76637;BME280;65532;52.124;5.480;2023-12-20T01:39:05;101550.28;;;4.34;100.00
76637;BME280;65532;52.124;5.480;2023-12-20T01:41:49;101545.75;;;4.35;100.00
76637;BME280;65532;52.124;5.480;2023-12-20T01:44:16;101549.91;;;4.37;100.00
76637;BME280;65532;52.124;5.480;2023-12-20T01:46:42;101545.41;;;4.38;100.00
76637;BME280;65532;52.124;5.480;2023-12-20T01:49:09;101535.50;;;4.38;100.00
76637;BME280;65532;52.124;5.480;2023-12-20T01:51:36;101529.50;;;4.36;100.00
76637;BME280;65532;52.124;5.480;2023-12-20T01:54:03;101541.22;;;4.35;100.00
76637;BME280;65532;52.124;5.480;2023-12-20T01:56:31;101545.09;;;4.33;100.00
76637;BME280;65532;52.124;5.480;2023-12-20T01:58:58;101544.44;;;4.31;100.00
76637;BME280;65532;52.124;5.480;2023-12-20T02:01:25;101541.56;;;4.32;100.00
76637;BME280;65532;52.124;5.480;2023-12-20T02:03:52;101531.50;;;4.34;100.00
76637;BME280;65532;52.124;5.480;2023-12-20T02:06:20;101530.50;;;4.35;100.00
76637;BME280;65532;52.124;5.480;2023-12-20T02:08:49;101539.56;;;4.34;100.00
76637;BME280;65532;52.124;5.480;2023-12-20T02:11:16;101543.91;;;4.35;100.00
76637;BME280;65532;52.124;5.480;2023-12-20T02:13:43;101537.19;;;4.39;100.00
76637;BME280;65532;52.124;5.480;2023-12-20T02:16:09;101535.00;;;4.43;100.00
76637;BME280;65532;52.124;5.480;2023-12-20T02:18:36;101526.75;;;4.53;100.00
76637;BME280;65532;52.124;5.480;2023-12-20T02:21:04;101532.44;;;4.58;100.00
76637;BME280;65532;52.124;5.480;2023-12-20T02:23:31;101521.19;;;4.62;100.00
76637;BME280;65532;52.124;5.480;2023-12-20T02:25:58;101525.00;;;4.68;100.00
76637;BME280;65532;52.124;5.480;2023-12-20T02:28:24;101527.13;;;4.72;100.00
76637;BME280;65532;52.124;5.480;2023-12-20T02:30:51;101528.13;;;4.79;100.00
76637;BME280;65532;52.124;5.480;2023-12-20T02:33:17;101525.25;;;4.81;100.00
76637;BME280;65532;52.124;5.480;2023-12-20T02:35:44;101520.72;;;4.81;100.00
76637;BME280;65532;52.124;5.480;2023-12-20T02:38:11;101516.19;;;4.82;100.00
76637;BME280;65532;52.124;5.480;2023-12-20T02:40:37;101512.50;;;4.83;100.00
76637;BME280;65532;52.124;5.480;2023-12-20T02:43:04;101510.00;;;4.81;100.00
76637;BME280;65532;52.124;5.480;2023-12-20T02:45:30;101510.00;;;4.81;100.00
76637;BME280;65532;52.124;5.480;2023-12-20T02:47:57;101501.78;;;4.83;100.00
76637;BME280;65532;52.124;5.480;2023-12-20T02:50:23;101498.06;;;4.84;100.00
76637;BME280;65532;52.124;5.480;2023-12-20T02:52:50;101505.94;;;4.86;100.00
76637;BME280;65532;52.124;5.480;2023-12-20T02:55:16;101499.56;;;4.87;100.00
76637;BME280;65532;52.124;5.480;2023-12-20T02:57:43;101501.91;;;4.90;100.00
76637;BME280;65532;52.124;5.480;2023-12-20T03:00:11;101498.69;;;4.94;100.00
76637;BME280;65532;52.124;5.480;2023-12-20T03:02:37;101493.69;;;4.91;100.00
76637;BME280;65532;52.124;5.480;2023-12-20T03:05:04;101491.19;;;4.90;100.00
76637;BME280;65532;52.124;5.480;2023-12-20T03:07:31;101493.19;;;4.88;100.00
76637;BME280;65532;52.124;5.480;2023-12-20T03:09:57;101491.50;;;4.87;100.00
76637;BME280;65532;52.124;5.480;2023-12-20T03:12:44;101481.63;;;4.87;100.00
76637;BME280;65532;52.124;5.480;2023-12-20T03:15:10;101481.28;;;4.90;100.00
76637;BME280;65532;52.124;5.480;2023-12-20T03:17:37;101486.47;;;4.92;100.00
76637;BME280;65532;52.124;5.480;2023-12-20T03:20:04;101475.75;;;4.92;100.00
76637;BME280;65532;52.124;5.480;2023-12-20T03:22:31;101483.44;;;4.95;100.00
76637;BME280;65532;52.124;5.480;2023-12-20T03:24:57;101475.84;;;4.98;100.00
76637;BME280;65532;52.124;5.480;2023-12-20T03:27:24;101463.91;;;5.01;100.00
76637;BME280;65532;52.124;5.480;2023-12-20T03:29:50;101468.44;;;5.00;100.00
76637;BME280;65532;52.124;5.480;2023-12-20T03:32:17;101470.28;;;5.00;100.00
76637;BME280;65532;52.124;5.480;2023-12-20T03:34:43;101458.91;;;4.98;100.00
76637;BME280;65532;52.124;5.480;2023-12-20T03:37:10;101470.75;;;5.03;100.00
76637;BME280;65532;52.124;5.480;2023-12-20T03:39:36;101463.41;;;5.05;100.00
76637;BME280;65532;52.124;5.480;2023-12-20T03:42:03;101478.31;;;5.08;100.00
76637;BME280;65532;52.124;5.480;2023-12-20T03:44:30;101472.38;;;5.13;100.00
76637;BME280;65532;52.124;5.480;2023-12-20T03:46:56;101472.84;;;5.16;100.00
76637;BME280;65532;52.124;5.480;2023-12-20T03:49:23;101472.34;;;5.21;100.00
76637;BME280;65532;52.124;5.480;2023-12-20T03:51:49;101474.84;;;5.22;100.00
76637;BME280;65532;52.124;5.480;2023-12-20T03:54:16;101469.56;;;5.29;100.00
76637;BME280;65532;52.124;5.480;2023-12-20T03:56:43;101473.88;;;5.38;100.00
76637;BME280;65532;52.124;5.480;2023-12-20T03:59:09;101478.41;;;5.37;100.00
76637;BME280;65532;52.124;5.480;2023-12-20T04:01:36;101475.53;;;5.39;100.00
76637;BME280;65532;52.124;5.480;2023-12-20T04:04:02;101471.47;;;5.43;100.00
76637;BME280;65532;52.124;5.480;2023-12-20T04:06:29;101477.47;;;5.45;100.00
76637;BME280;65532;52.124;5.480;2023-12-20T04:08:56;101479.16;;;5.46;100.00
76637;BME280;65532;52.124;5.480;2023-12-20T04:11:22;101472.75;;;5.47;100.00
76637;BME280;65532;52.124;5.480;2023-12-20T04:13:49;101480.25;;;5.52;100.00
76637;BME280;65532;52.124;5.480;2023-12-20T04:16:15;101479.09;;;5.54;100.00
76637;BME280;65532;52.124;5.480;2023-12-20T04:18:42;101466.31;;;5.56;100.00
76637;BME280;65532;52.124;5.480;2023-12-20T04:21:09;101465.94;;;5.59;100.00
76637;BME280;65532;52.124;5.480;2023-12-20T04:23:35;101465.09;;;5.59;100.00
76637;BME280;65532;52.124;5.480;2023-12-20T04:26:02;101454.34;;;5.59;100.00
76637;BME280;65532;52.124;5.480;2023-12-20T04:28:28;101459.16;;;5.63;100.00
76637;BME280;65532;52.124;5.480;2023-12-20T04:30:56;101466.78;;;5.75;100.00
76637;BME280;65532;52.124;5.480;2023-12-20T04:33:23;101475.75;;;5.82;100.00
76637;BME280;65532;52.124;5.480;2023-12-20T04:35:50;101471.72;;;5.86;100.00
76637;BME280;65532;52.124;5.480;2023-12-20T04:38:17;101473.19;;;5.88;100.00
76637;BME280;65532;52.124;5.480;2023-12-20T04:40:44;101468.94;;;5.94;100.00
76637;BME280;65532;52.124;5.480;2023-12-20T04:43:10;101474.78;;;5.97;100.00
76637;BME280;65532;52.124;5.480;2023-12-20T04:45:37;101454.94;;;5.98;100.00
76637;BME280;65532;52.124;5.480;2023-12-20T04:48:04;101457.75;;;6.05;100.00
76637;BME280;65532;52.124;5.480;2023-12-20T04:50:31;101461.91;;;6.08;100.00
76637;BME280;65532;52.124;5.480;2023-12-20T04:52:57;101466.06;;;6.10;100.00
76637;BME280;65532;52.124;5.480;2023-12-20T04:55:24;101461.34;;;6.12;100.00
76637;BME280;65532;52.124;5.480;2023-12-20T04:57:50;101460.97;;;6.15;100.00
76637;BME280;65532;52.124;5.480;2023-12-20T05:00:17;101459.78;;;6.18;100.00
76637;BME280;65532;52.124;5.480;2023-12-20T05:02:43;101456.91;;;6.19;100.00
76637;BME280;65532;52.124;5.480;2023-12-20T05:05:10;101459.84;;;6.24;100.00
76637;BME280;65532;52.124;5.480;2023-12-20T05:07:37;101452.03;;;6.29;100.00
76637;BME280;65532;52.124;5.480;2023-12-20T05:10:04;101458.72;;;6.34;100.00
76637;BME280;65532;52.124;5.480;2023-12-20T05:12:31;101454.19;;;6.34;100.00
76637;BME280;65532;52.124;5.480;2023-12-20T05:14:58;101451.31;;;6.36;100.00
76637;BME280;65532;52.124;5.480;2023-12-20T05:17:24;101448.63;;;6.36;100.00
76637;BME280;65532;52.124;5.480;2023-12-20T05:19:51;101443.06;;;6.37;100.00
76637;BME280;65532;52.124;5.480;2023-12-20T05:22:19;101459.63;;;6.41;100.00
76637;BME280;65532;52.124;5.480;2023-12-20T05:24:46;101460.28;;;6.43;100.00
76637;BME280;65532;52.124;5.480;2023-12-20T05:27:12;101458.81;;;6.40;100.00
76637;BME280;65532;52.124;5.480;2023-12-20T05:29:39;101459.25;;;6.44;100.00
76637;BME280;65532;52.124;5.480;2023-12-20T05:32:06;101460.91;;;6.45;100.00
76637;BME280;65532;52.124;5.480;2023-12-20T05:34:32;101454.34;;;6.47;100.00
76637;BME280;65532;52.124;5.480;2023-12-20T05:36:59;101451.47;;;6.49;100.00
76637;BME280;65532;52.124;5.480;2023-12-20T05:39:26;101452.31;;;6.49;100.00
76637;BME280;65532;52.124;5.480;2023-12-20T05:41:52;101452.31;;;6.49;100.00
76637;BME280;65532;52.124;5.480;2023-12-20T05:44:19;101452.75;;;6.53;100.00
76637;BME280;65532;52.124;5.480;2023-12-20T05:46:45;101447.38;;;6.53;100.00
76637;BME280;65532;52.124;5.480;2023-12-20T05:49:12;101452.75;;;6.53;100.00
76637;BME280;65532;52.124;5.480;2023-12-20T05:51:38;101451.09;;;6.52;100.00
76637;BME280;65532;52.124;5.480;2023-12-20T05:54:05;101458.13;;;6.53;100.00
76637;BME280;65532;52.124;5.480;2023-12-20T05:56:31;101455.25;;;6.54;100.00
76637;BME280;65532;52.124;5.480;2023-12-20T05:58:58;101461.66;;;6.53;100.00
76637;BME280;65532;52.124;5.480;2023-12-20T06:01:25;101463.50;;;6.53;100.00
76637;BME280;65532;52.124;5.480;2023-12-20T06:03:52;101455.44;;;6.53;100.00
76637;BME280;65532;52.124;5.480;2023-12-20T06:06:18;101461.66;;;6.53;100.00
76637;BME280;65532;52.124;5.480;2023-12-20T06:08:45;101459.16;;;6.52;100.00
76637;BME280;65532;52.124;5.480;2023-12-20T06:11:12;101454.41;;;6.54;100.00
76637;BME280;65532;52.124;5.480;2023-12-20T06:13:40;101450.69;;;6.55;100.00
76637;BME280;65532;52.124;5.480;2023-12-20T06:16:06;101442.00;;;6.53;100.00
76637;BME280;65532;52.124;5.480;2023-12-20T06:18:34;101443.66;;;6.54;100.00
76637;BME280;65532;52.124;5.480;2023-12-20T06:21:00;101444.94;;;6.58;100.00
76637;BME280;65532;52.124;5.480;2023-12-20T06:23:27;101440.59;;;6.57;100.00
76637;BME280;65532;52.124;5.480;2023-12-20T06:25:54;101432.97;;;6.60;100.00
76637;BME280;65532;52.124;5.480;2023-12-20T06:28:20;101437.78;;;6.65;100.00
76637;BME280;65532;52.124;5.480;2023-12-20T06:30:47;101436.13;;;6.64;100.00
76637;BME280;65532;52.124;5.480;2023-12-20T06:33:16;101437.78;;;6.65;100.00
76637;BME280;65532;52.124;5.480;2023-12-20T06:35:42;101435.75;;;6.67;100.00
76637;BME280;65532;52.124;5.480;2023-12-20T06:38:09;101438.03;;;6.70;100.00
76637;BME280;65532;52.124;5.480;2023-12-20T06:40:35;101434.53;;;6.70;100.00
76637;BME280;65532;52.124;5.480;2023-12-20T06:43:02;101437.00;;;6.71;100.00
76637;BME280;65532;52.124;5.480;2023-12-20T06:45:41;101426.50;;;6.76;100.00
76637;BME280;65532;52.124;5.480;2023-12-20T06:48:08;101433.94;;;6.74;100.00
76637;BME280;65532;52.124;5.480;2023-12-20T06:50:37;101424.19;;;6.73;100.00
76637;BME280;65532;52.124;5.480;2023-12-20T06:53:06;101425.63;;;6.69;100.00
76637;BME280;65532;52.124;5.480;2023-12-20T06:55:35;101419.41;;;6.69;100.00
76637;BME280;65532;52.124;5.480;2023-12-20T06:58:02;101417.34;;;6.71;100.00
76637;BME280;65532;52.124;5.480;2023-12-20T07:00:28;101425.41;;;6.71;100.00
76637;BME280;65532;52.124;5.480;2023-12-20T07:02:56;101426.25;;;6.71;100.00
76637;BME280;65532;52.124;5.480;2023-12-20T07:05:22;101416.50;;;6.70;100.00
76637;BME280;65532;52.124;5.480;2023-12-20T07:07:49;101431.00;;;6.69;100.00
76637;BME280;65532;52.124;5.480;2023-12-20T07:10:16;101427.28;;;6.70;100.00
76637;BME280;65532;52.124;5.480;2023-12-20T07:12:43;101423.56;;;6.71;100.00
76637;BME280;65532;52.124;5.480;2023-12-20T07:15:10;101426.88;;;6.73;100.00
76637;BME280;65532;52.124;5.480;2023-12-20T07:17:37;101433.94;;;6.74;100.00
76637;BME280;65532;52.124;5.480;2023-12-20T07:20:04;101431.25;;;6.74;100.00
76637;BME280;65532;52.124;5.480;2023-12-20T07:22:33;101436.44;;;6.76;100.00
76637;BME280;65532;52.124;5.480;2023-12-20T07:25:00;101421.13;;;6.76;100.00
76637;BME280;65532;52.124;5.480;2023-12-20T07:27:27;101413.69;;;6.78;100.00
76637;BME280;65532;52.124;5.480;2023-12-20T07:29:53;101412.69;;;6.79;100.00
76637;BME280;65532;52.124;5.480;2023-12-20T07:32:20;101414.34;;;6.80;100.00
76637;BME280;65532;52.124;5.480;2023-12-20T07:34:46;101409.81;;;6.81;100.00
76637;BME280;65532;52.124;5.480;2023-12-20T07:37:13;101404.22;;;6.82;100.00
76637;BME280;65532;52.124;5.480;2023-12-20T07:39:41;101407.56;;;6.84;100.00
76637;BME280;65532;52.124;5.480;2023-12-20T07:42:08;101394.72;;;6.86;100.00
76637;BME280;65532;52.124;5.480;2023-12-20T07:44:35;101418.75;;;6.88;100.00
76637;BME280;65532;52.124;5.480;2023-12-20T07:47:05;101409.66;;;6.89;100.00
76637;BME280;65532;52.124;5.480;2023-12-20T07:49:31;101419.59;;;6.88;100.00
76637;BME280;65532;52.124;5.480;2023-12-20T07:51:58;101424.59;;;6.91;100.00
76637;BME280;65532;52.124;5.480;2023-12-20T07:54:25;101434.50;;;6.91;100.00
76637;BME280;65532;52.124;5.480;2023-12-20T07:56:52;101428.94;;;6.93;100.00
76637;BME280;65532;52.124;5.480;2023-12-20T07:59:18;101433.28;;;6.94;100.00
76637;BME280;65532;52.124;5.480;2023-12-20T08:01:58;101433.97;;;6.96;100.00
76637;BME280;65532;52.124;5.480;2023-12-20T08:04:25;101437.69;;;6.95;100.00
76637;BME280;65532;52.124;5.480;2023-12-20T08:06:52;101448.06;;;6.98;100.00
76637;BME280;65532;52.124;5.480;2023-12-20T08:09:19;101450.75;;;6.98;100.00
76637;BME280;65532;52.124;5.480;2023-12-20T08:11:47;101448.06;;;6.98;100.00
76637;BME280;65532;52.124;5.480;2023-12-20T08:14:14;101450.34;;;7.01;100.00
76637;BME280;65532;52.124;5.480;2023-12-20T08:16:43;101441.63;;;6.99;100.00
76637;BME280;65532;52.124;5.480;2023-12-20T08:19:10;101444.97;;;7.01;100.00
76637;BME280;65532;52.124;5.480;2023-12-20T08:21:37;101439.19;;;7.04;100.00
76637;BME280;65532;52.124;5.480;2023-12-20T08:24:04;101434.00;;;7.02;100.00
76637;BME280;65532;52.124;5.480;2023-12-20T08:26:32;101432.97;;;7.03;100.00
76637;BME280;65532;52.124;5.480;2023-12-20T08:28:59;101439.19;;;7.04;100.00
76637;BME280;65532;52.124;5.480;2023-12-20T08:31:28;101428.44;;;7.04;100.00
76637;BME280;65532;52.124;5.480;2023-12-20T08:33:55;101427.41;;;7.05;100.00
76637;BME280;65532;52.124;5.480;2023-12-20T08:36:22;101433.41;;;7.07;100.00
76637;BME280;65532;52.124;5.480;2023-12-20T08:38:50;101434.25;;;7.07;100.00
76637;BME280;65532;52.124;5.480;2023-12-20T08:41:17;101427.63;;;7.10;100.00
76637;BME280;65532;52.124;5.480;2023-12-20T08:43:44;101431.00;;;7.12;100.00
76637;BME280;65532;52.124;5.480;2023-12-20T08:46:10;101424.59;;;7.13;100.00
76637;BME280;65532;52.124;5.480;2023-12-20T08:48:38;101424.38;;;7.14;100.00
76637;BME280;65532;52.124;5.480;2023-12-20T08:51:05;101434.31;;;7.14;100.00
76637;BME280;65532;52.124;5.480;2023-12-20T08:53:35;101438.88;;;7.13;100.00
76637;BME280;65532;52.124;5.480;2023-12-20T08:56:01;101419.41;;;7.11;100.00
76637;BME280;65532;52.124;5.480;2023-12-20T08:58:28;101425.81;;;7.10;100.00
76637;BME280;65532;52.124;5.480;2023-12-20T09:00:55;101430.53;;;7.08;100.00
76637;BME280;65532;52.124;5.480;2023-12-20T09:03:21;101425.53;;;7.05;100.00
76637;BME280;65532;52.124;5.480;2023-12-20T09:05:48;101434.00;;;7.02;100.00
76637;BME280;65532;52.124;5.480;2023-12-20T09:08:14;101426.72;;;6.96;100.00
76637;BME280;65532;52.124;5.480;2023-12-20T09:10:41;101427.91;;;6.94;100.00
76637;BME280;65532;52.124;5.480;2023-12-20T09:13:07;101420.22;;;6.90;100.00
76637;BME280;65532;52.124;5.480;2023-12-20T09:15:34;101427.91;;;6.94;100.00
76637;BME280;65532;52.124;5.480;2023-12-20T09:18:02;101410.09;;;6.93;100.00
76637;BME280;65532;52.124;5.480;2023-12-20T09:20:30;101426.25;;;6.93;100.00
76637;BME280;65532;52.124;5.480;2023-12-20T09:22:57;101421.06;;;6.91;100.00
76637;BME280;65532;52.124;5.480;2023-12-20T09:25:24;101419.19;;;6.91;100.00
76637;BME280;65532;52.124;5.480;2023-12-20T09:27:52;101420.84;;;6.93;100.00
76637;BME280;65532;52.124;5.480;2023-12-20T09:30:19;101423.56;;;6.93;100.00
76637;BME280;65532;52.124;5.480;2023-12-20T09:32:56;101425.88;;;6.96;100.00
76637;BME280;65532;52.124;5.480;2023-12-20T09:35:23;101424.25;;;7.01;100.00
76637;BME280;65532;52.124;5.480;2023-12-20T09:37:50;101428.03;;;7.07;100.00
76637;BME280;65532;52.124;5.480;2023-12-20T09:40:18;101426.44;;;7.12;100.00
76637;BME280;65532;52.124;5.480;2023-12-20T09:45:20;101416.56;;;7.19;100.00
76637;BME280;65532;52.124;5.480;2023-12-20T09:47:51;101419.31;;;7.26;100.00
76637;BME280;65532;52.124;5.480;2023-12-20T09:50:20;101422.25;;;7.31;100.00
76637;BME280;65532;52.124;5.480;2023-12-20T09:52:52;101426.22;;;7.35;100.00
76637;BME280;65532;52.124;5.480;2023-12-20T09:55:20;101424.56;;;7.41;100.00
76637;BME280;65532;52.124;5.480;2023-12-20T09:57:48;101417.59;;;7.46;100.00
76637;BME280;65532;52.124;5.480;2023-12-20T10:00:16;101414.50;;;7.49;100.00
76637;BME280;65532;52.124;5.480;2023-12-20T10:02:57;101420.13;;;7.55;100.00
76637;BME280;65532;52.124;5.480;2023-12-20T10:05:31;101429.72;;;7.64;100.00
76637;BME280;65532;52.124;5.480;2023-12-20T10:07:59;101433.50;;;7.69;100.00
76637;BME280;65532;52.124;5.480;2023-12-20T10:10:27;101440.16;;;7.73;100.00
76637;BME280;65532;52.124;5.480;2023-12-20T10:13:10;101445.34;;;7.75;100.00
76637;BME280;65532;52.124;5.480;2023-12-20T10:15:37;101439.16;;;7.81;100.00
76637;BME280;65532;52.124;5.480;2023-12-20T10:18:04;101449.53;;;7.84;100.00
76637;BME280;65532;52.124;5.480;2023-12-20T10:20:31;101456.41;;;7.87;100.00
76637;BME280;65532;52.124;5.480;2023-12-20T10:22:59;101439.41;;;7.86;100.00
76637;BME280;65532;52.124;5.480;2023-12-20T10:25:26;101446.06;;;7.90;100.00
76637;BME280;65532;52.124;5.480;2023-12-20T10:28:13;101435.91;;;7.92;100.00
76637;BME280;65532;52.124;5.480;2023-12-20T10:30:41;101440.28;;;7.93;100.00
76637;BME280;65532;52.124;5.480;2023-12-20T10:33:09;101428.25;;;7.96;100.00
76637;BME280;65532;52.124;5.480;2023-12-20T10:35:38;101426.81;;;8.00;100.00
76637;BME280;65532;52.124;5.480;2023-12-20T10:38:11;101426.22;;;8.04;100.00
76637;BME280;65532;52.124;5.480;2023-12-20T10:40:39;101415.06;;;8.07;100.00
76637;BME280;65532;52.124;5.480;2023-12-20T10:43:08;101428.34;;;8.09;100.00
76637;BME280;65532;52.124;5.480;2023-12-20T10:45:35;101422.94;;;8.09;100.00
76637;BME280;65532;52.124;5.480;2023-12-20T10:48:02;101414.66;;;8.10;100.00
76637;BME280;65532;52.124;5.480;2023-12-20T10:50:30;101416.72;;;8.15;100.00
76637;BME280;65532;52.124;5.480;2023-12-20T10:52:58;101415.75;;;8.23;100.00
76637;BME280;65532;52.124;5.480;2023-12-20T10:55:25;101412.63;;;8.26;100.00
76637;BME280;65532;52.124;5.480;2023-12-20T10:57:54;101416.16;;;8.26;100.00
76637;BME280;65532;52.124;5.480;2023-12-20T11:00:29;101414.28;;;8.27;100.00
76637;BME280;65532;52.124;5.480;2023-12-20T11:02:59;101415.16;;;8.34;100.00
76637;BME280;65532;52.124;5.480;2023-12-20T11:05:36;101404.63;;;8.39;100.00
76637;BME280;65532;52.124;5.480;2023-12-20T11:08:19;101412.31;;;8.42;100.00
76637;BME280;65532;52.124;5.480;2023-12-20T11:11:00;101393.00;;;8.45;100.00
76637;BME280;65532;52.124;5.480;2023-12-20T11:13:33;101393.00;;;8.45;100.00
76637;BME280;65532;52.124;5.480;2023-12-20T11:16:02;101391.56;;;8.49;100.00
76637;BME280;65532;52.124;5.480;2023-12-20T11:18:30;101399.47;;;8.57;100.00
76637;BME280;65532;52.124;5.480;2023-12-20T11:21:04;101389.97;;;8.68;100.00
76637;BME280;65532;52.124;5.480;2023-12-20T11:23:32;101403.03;;;8.71;100.00
76637;BME280;65532;52.124;5.480;2023-12-20T11:26:02;101385.56;;;8.67;100.00
76637;BME280;65532;52.124;5.480;2023-12-20T11:28:29;101377.06;;;8.63;100.00
76637;BME280;65532;52.124;5.480;2023-12-20T11:30:58;101367.09;;;8.57;100.00
76637;BME280;65532;52.124;5.480;2023-12-20T11:33:38;101379.75;;;8.57;100.00
76637;BME280;65532;52.124;5.480;2023-12-20T11:36:13;101375.41;;;8.62;100.00
76637;BME280;65532;52.124;5.480;2023-12-20T11:38:56;101370.03;;;8.76;100.00
76637;BME280;65532;52.124;5.480;2023-12-20T11:41:23;101373.53;;;8.83;100.00
76637;BME280;65532;52.124;5.480;2023-12-20T11:43:53;101365.88;;;8.93;100.00
76637;BME280;65532;52.124;5.480;2023-12-20T11:46:21;101364.41;;;8.97;100.00
76637;BME280;65532;52.124;5.480;2023-12-20T11:48:47;101364.84;;;8.94;100.00
76637;BME280;65532;52.124;5.480;2023-12-20T11:51:15;101361.94;;;8.89;100.00
76637;BME280;65532;52.124;5.480;2023-12-20T11:53:42;101349.47;;;8.88;100.00
76637;BME280;65532;52.124;5.480;2023-12-20T11:56:09;101347.19;;;8.85;100.00
76637;BME280;65532;52.124;5.480;2023-12-20T11:58:36;101339.94;;;8.85;100.00
76637;BME280;65532;52.124;5.480;2023-12-20T12:01:03;101345.94;;;8.87;100.00
76637;BME280;65532;52.124;5.480;2023-12-20T12:03:31;101350.09;;;8.90;100.00
76637;BME280;65532;52.124;5.480;2023-12-20T12:05:57;101351.13;;;8.89;100.00
76637;BME280;65532;52.124;5.480;2023-12-20T12:08:24;101358.63;;;8.87;100.00
76637;BME280;65532;52.124;5.480;2023-12-20T12:10:51;101354.03;;;8.87;100.00
76637;BME280;65532;52.124;5.480;2023-12-20T12:13:18;101357.56;;;8.88;100.00
76637;BME280;65532;52.124;5.480;2023-12-20T12:15:44;101356.34;;;8.84;100.00
76637;BME280;65532;52.124;5.480;2023-12-20T12:18:15;101357.34;;;8.83;100.00
76637;BME280;65532;52.124;5.480;2023-12-20T12:20:42;101366.28;;;8.83;100.00
76637;BME280;65532;52.124;5.480;2023-12-20T12:23:09;101364.19;;;8.79;100.00
76637;BME280;65532;52.124;5.480;2023-12-20T12:25:36;101356.94;;;8.79;100.00
76637;BME280;65532;52.124;5.480;2023-12-20T12:28:09;101352.56;;;8.78;100.00
76637;BME280;65532;52.124;5.480;2023-12-20T12:30:35;101350.06;;;8.83;100.00
76637;BME280;65532;52.124;5.480;2023-12-20T12:33:11;101337.22;;;8.85;100.00
76637;BME280;65532;52.124;5.480;2023-12-20T12:35:38;101328.91;;;8.87;100.00
76637;BME280;65532;52.124;5.480;2023-12-20T12:38:07;101330.78;;;8.86;100.00
76637;BME280;65532;52.124;5.480;2023-12-20T12:40:34;101335.56;;;8.84;100.00
76637;BME280;65532;52.124;5.480;2023-12-20T12:43:02;101330.16;;;8.84;100.00
76637;BME280;65532;52.124;5.480;2023-12-20T12:45:29;101327.66;;;8.83;100.00
76637;BME280;65532;52.124;5.480;2023-12-20T12:47:55;101307.09;;;8.82;100.00
76637;BME280;65532;52.124;5.480;2023-12-20T12:50:22;101307.09;;;8.82;100.00
76637;BME280;65532;52.124;5.480;2023-12-20T12:52:49;101306.47;;;8.80;100.00
76637;BME280;65532;52.124;5.480;2023-12-20T12:55:16;101307.50;;;8.79;100.00